Terminal Aerodrome Forecast
Issued by NWS

Home | Current Version | Previous Version | Text Only | Print | Product List | Glossary On
Versions: 1 2 3 4 5 6 7 8 9 10 11 12 13 14 15 16 17 18 19 20 21 22 23 24 25
312
FTUS46 KMTR 031608 AAB
TAFSFO
TAF AMD
KSFO 031608Z 0316/0418 30008KT P6SM FEW010 SCT012 BKN200
     FM032100 29015KT P6SM FEW020 BKN200
     FM040400 29008KT P6SM FEW015 BKN200
     FM040900 26005KT P6SM OVC015=

USA.gov is the U.S. government's official web portal to all federal, state and local government web resources and services.